createdAt,value
2022-09-04T00:01:38.035Z,60.60
2022-09-04T00:03:50.263Z,60.50
2022-09-04T00:05:53.306Z,61.00
2022-09-04T00:08:04.130Z,60.80
2022-09-04T00:10:19.045Z,60.90
2022-09-04T00:12:28.028Z,60.60
2022-09-04T00:14:40.042Z,60.70
2022-09-04T00:16:54.804Z,61.00
2022-09-04T00:19:03.154Z,61.10
2022-09-04T00:21:16.906Z,61.30
2022-09-04T00:23:18.621Z,61.20
2022-09-04T00:25:43.728Z,60.80
2022-09-04T00:27:47.611Z,60.60
2022-09-04T00:29:51.961Z,60.40
2022-09-04T00:32:12.440Z,60.80
2022-09-04T00:34:16.739Z,61.20
2022-09-04T00:36:19.135Z,61.00
2022-09-04T00:38:39.750Z,60.80
2022-09-04T00:40:43.074Z,60.60
2022-09-04T00:43:06.538Z,61.00
2022-09-04T00:45:31.565Z,61.10
2022-09-04T00:47:51.892Z,61.00
2022-09-04T00:50:06.987Z,60.60
2022-09-04T00:52:36.859Z,61.20
2022-09-04T00:54:44.750Z,61.40
2022-09-04T00:57:01.717Z,61.30
2022-09-04T00:59:03.361Z,61.20
2022-09-04T01:01:05.467Z,61.50
2022-09-04T01:03:07.225Z,61.40
2022-09-04T01:05:19.599Z,61.70
2022-09-04T01:07:27.538Z,61.20
2022-09-04T01:09:31.067Z,61.00
2022-09-04T01:11:49.219Z,61.70
2022-09-04T01:13:50.879Z,61.70
2022-09-04T01:15:57.555Z,61.70
2022-09-04T01:18:11.957Z,61.50
2022-09-04T01:20:20.240Z,62.40
2022-09-04T01:22:30.709Z,61.80
2022-09-04T01:24:41.725Z,62.00
2022-09-04T01:26:47.810Z,61.70
2022-09-04T01:29:10.178Z,61.30
2022-09-04T01:31:20.873Z,61.20
2022-09-04T01:33:25.361Z,61.60
2022-09-04T01:35:35.107Z,61.40
2022-09-04T01:37:41.665Z,61.60
2022-09-04T01:39:45.439Z,61.60
2022-09-04T01:41:56.448Z,61.20
2022-09-04T01:43:58.103Z,61.30
2022-09-04T01:45:59.849Z,62.30
2022-09-04T01:48:03.750Z,61.20
2022-09-04T01:50:07.955Z,61.40
2022-09-04T01:52:36.480Z,61.30
2022-09-04T01:54:38.130Z,61.40
2022-09-04T01:56:42.885Z,61.60
2022-09-04T01:59:03.060Z,61.50
2022-09-04T02:01:15.041Z,61.50
2022-09-04T02:03:26.636Z,61.50
2022-09-04T02:05:28.415Z,61.40
2022-09-04T02:07:30.039Z,61.10
2022-09-04T02:09:48.282Z,61.10
2022-09-04T02:11:57.163Z,61.60
2022-09-04T02:14:11.354Z,61.60
2022-09-04T02:16:15.893Z,61.40
2022-09-04T02:18:44.325Z,61.10
2022-09-04T02:20:52.668Z,61.70
2022-09-04T02:23:11.676Z,61.50
2022-09-04T02:25:31.794Z,62.00
2022-09-04T02:27:59.215Z,61.80
2022-09-04T02:30:20.490Z,62.00
2022-09-04T02:32:30.972Z,61.60
2022-09-04T02:34:45.522Z,61.50
2022-09-04T02:36:50.362Z,62.00
2022-09-04T02:38:54.898Z,61.60
2022-09-04T02:41:03.978Z,61.80
2022-09-04T02:43:05.654Z,62.00
2022-09-04T02:45:07.282Z,62.00
2022-09-04T02:47:30.870Z,61.70
2022-09-04T02:49:58.287Z,61.50
2022-09-04T02:52:17.065Z,61.70
2022-09-04T02:54:45.059Z,61.50
2022-09-04T02:56:46.708Z,61.70
2022-09-04T02:58:50.986Z,61.50
2022-09-04T03:01:02.932Z,61.20
2022-09-04T03:03:23.582Z,62.40
2022-09-04T03:05:31.301Z,62.10
2022-09-04T03:07:38.005Z,61.70
2022-09-04T03:09:44.568Z,62.10
2022-09-04T03:11:53.286Z,62.00
2022-09-04T03:14:03.745Z,61.80
2022-09-04T03:16:05.464Z,62.10
2022-09-04T03:18:16.823Z,62.20
2022-09-04T03:20:23.284Z,62.40
2022-09-04T03:22:39.669Z,62.40
2022-09-04T03:24:41.323Z,62.50
2022-09-04T03:26:56.564Z,62.20
2022-09-04T03:29:16.845Z,62.20
2022-09-04T03:31:24.348Z,62.10
2022-09-04T03:33:41.256Z,62.00
2022-09-04T03:35:42.903Z,61.70
2022-09-04T03:37:56.627Z,61.70
2022-09-04T03:39:58.555Z,62.00
2022-09-04T03:42:21.228Z,62.40
2022-09-04T03:44:55.330Z,62.70
2022-09-04T03:46:59.787Z,62.70
2022-09-04T03:49:07.253Z,62.30
2022-09-04T03:51:35.247Z,62.50
2022-09-04T03:53:41.444Z,62.70
2022-09-04T03:56:01.457Z,62.30
2022-09-04T03:58:03.054Z,62.10
2022-09-04T04:00:09.454Z,62.40
2022-09-04T04:02:35.660Z,62.80
2022-09-04T04:04:52.953Z,62.80
2022-09-04T04:07:01.559Z,62.40
2022-09-04T04:09:22.029Z,62.10
2022-09-04T04:11:26.754Z,62.00
2022-09-04T04:13:34.135Z,62.40
2022-09-04T04:15:42.057Z,62.80
2022-09-04T04:17:47.609Z,63.10
2022-09-04T04:19:58.066Z,63.00
2022-09-04T04:22:02.832Z,63.30
2022-09-04T04:24:29.818Z,63.30
2022-09-04T04:26:43.388Z,63.50
2022-09-04T04:29:02.710Z,63.10
2022-09-04T04:31:11.034Z,63.10
2022-09-04T04:33:12.828Z,62.80
2022-09-04T04:35:17.386Z,62.70
2022-09-04T04:37:34.393Z,62.70
2022-09-04T04:39:54.757Z,62.70
2022-09-04T04:42:19.210Z,62.70
2022-09-04T04:44:44.608Z,63.00
2022-09-04T04:46:52.221Z,62.70
2022-09-04T04:49:00.144Z,62.80
2022-09-04T04:51:14.024Z,63.00
2022-09-04T04:53:22.571Z,63.40
2022-09-04T04:55:43.019Z,63.10
2022-09-04T04:58:03.663Z,63.00
2022-09-04T05:00:08.754Z,62.80
2022-09-04T05:02:18.547Z,62.70
2022-09-04T05:04:25.180Z,62.60
2022-09-04T05:06:47.740Z,62.80
2022-09-04T05:09:08.803Z,63.10
2022-09-04T05:11:18.842Z,63.40
2022-09-04T05:13:20.496Z,63.60
2022-09-04T05:15:36.004Z,63.80
2022-09-04T05:17:55.852Z,63.80
2022-09-04T05:20:03.150Z,63.50
2022-09-04T05:22:07.603Z,63.30
2022-09-04T05:24:12.329Z,63.30
2022-09-04T05:26:14.057Z,63.20
2022-09-04T05:28:42.107Z,63.10
2022-09-04T05:30:48.638Z,63.10
2022-09-04T05:32:58.699Z,63.00
2022-09-04T05:35:17.885Z,63.20
2022-09-04T05:37:23.099Z,63.50
2022-09-04T05:39:25.490Z,63.30
2022-09-04T05:41:30.194Z,63.40
2022-09-04T05:43:49.771Z,63.10
2022-09-04T05:46:10.385Z,63.00
2022-09-04T05:48:14.945Z,63.50
2022-09-04T05:50:28.701Z,63.60
2022-09-04T05:52:49.263Z,63.50
2022-09-04T05:55:10.135Z,63.40
2022-09-04T05:57:24.975Z,63.10
2022-09-04T05:59:32.450Z,63.00
2022-09-04T06:01:40.062Z,63.10
2022-09-04T06:03:50.676Z,63.20
2022-09-04T06:06:04.859Z,63.10
2022-09-04T06:08:44.861Z,62.90
2022-09-04T06:11:05.122Z,62.80
2022-09-04T06:13:19.122Z,62.70
2022-09-04T06:15:36.349Z,62.80
2022-09-04T06:17:38.000Z,62.90
2022-09-04T06:19:39.675Z,62.80
2022-09-04T06:21:41.309Z,62.90
2022-09-04T06:23:48.896Z,62.80
2022-09-04T06:25:50.532Z,62.80
2022-09-04T06:28:07.540Z,62.80
2022-09-04T06:30:10.831Z,62.90
2022-09-04T06:32:12.490Z,62.90
2022-09-04T06:34:22.320Z,63.00
2022-09-04T06:36:43.048Z,63.00
2022-09-04T06:38:53.296Z,63.10
2022-09-04T06:41:11.409Z,63.30
2022-09-04T06:43:26.464Z,63.20
2022-09-04T06:45:35.280Z,63.40
2022-09-04T06:47:36.910Z,63.40
2022-09-04T06:49:58.731Z,63.60
2022-09-04T06:52:12.913Z,63.50
2022-09-04T06:54:19.097Z,63.50
2022-09-04T06:56:28.655Z,63.60
2022-09-04T06:58:43.126Z,63.50
2022-09-04T07:00:47.938Z,63.50
2022-09-04T07:02:56.462Z,63.60
2022-09-04T07:05:04.306Z,63.80
2022-09-04T07:07:05.999Z,63.50
2022-09-04T07:09:07.657Z,63.70
2022-09-04T07:11:18.816Z,63.50
2022-09-04T07:13:23.703Z,63.50
2022-09-04T07:15:38.432Z,63.40
2022-09-04T07:18:01.363Z,63.70
2022-09-04T07:20:11.075Z,63.80
2022-09-04T07:22:25.051Z,63.80
2022-09-04T07:24:52.343Z,63.90
2022-09-04T07:26:58.782Z,64.00
2022-09-04T07:29:22.602Z,63.90
2022-09-04T07:31:33.082Z,64.00
2022-09-04T07:33:53.113Z,64.00
2022-09-04T07:36:08.006Z,63.90
2022-09-04T07:38:12.426Z,64.00
2022-09-04T07:40:23.117Z,63.90
2022-09-04T07:42:30.948Z,63.90
2022-09-04T07:44:39.524Z,64.00
2022-09-04T07:46:55.072Z,64.00
2022-09-04T07:49:10.754Z,64.10
2022-09-04T07:51:15.395Z,64.10
2022-09-04T07:53:17.058Z,64.10
2022-09-04T07:55:37.755Z,64.10
2022-09-04T07:58:04.337Z,64.30
2022-09-04T08:00:08.654Z,64.20
2022-09-04T08:02:35.213Z,64.10
2022-09-04T08:04:49.220Z,64.10
2022-09-04T08:06:53.787Z,64.10
2022-09-04T08:09:06.640Z,64.20
2022-09-04T08:11:17.564Z,64.20
2022-09-04T08:13:28.073Z,64.20
2022-09-04T08:15:49.114Z,64.00
2022-09-04T08:18:01.463Z,64.30
2022-09-04T08:20:11.849Z,64.20
2022-09-04T08:22:19.896Z,64.30
2022-09-04T08:24:41.269Z,64.40
2022-09-04T08:26:42.915Z,64.20
2022-09-04T08:28:58.218Z,64.40
2022-09-04T08:31:06.170Z,64.70
2022-09-04T08:33:27.450Z,64.80
2022-09-04T08:36:07.566Z,64.40
2022-09-04T08:38:09.233Z,64.10
2022-09-04T08:40:29.694Z,64.40
2022-09-04T08:42:49.895Z,64.50
2022-09-04T08:45:11.534Z,64.70
2022-09-04T08:47:32.119Z,65.50
2022-09-04T08:49:46.914Z,64.70
2022-09-04T08:51:51.712Z,64.80
2022-09-04T08:53:56.871Z,64.90
2022-09-04T08:56:10.150Z,65.00
2022-09-04T08:58:30.307Z,64.80
2022-09-04T09:00:39.087Z,64.70
2022-09-04T09:03:13.297Z,64.60
2022-09-04T09:05:30.113Z,64.60
2022-09-04T09:07:37.562Z,64.70
2022-09-04T09:09:42.618Z,64.70
2022-09-04T09:12:02.624Z,64.70
2022-09-04T09:14:16.444Z,64.70
2022-09-04T09:16:21.180Z,64.50
2022-09-04T09:18:41.504Z,64.60
2022-09-04T09:21:03.440Z,64.50
2022-09-04T09:23:22.623Z,64.40
2022-09-04T09:25:24.683Z,64.20
2022-09-04T09:27:58.927Z,64.10
2022-09-04T09:30:00.808Z,64.10
2022-09-04T09:32:07.111Z,64.10
2022-09-04T09:34:27.040Z,64.00
2022-09-04T09:36:47.321Z,63.90
2022-09-04T09:38:58.295Z,63.70
2022-09-04T09:41:06.414Z,63.40
2022-09-04T09:43:17.181Z,63.20
2022-09-04T09:45:37.672Z,63.40
2022-09-04T09:47:54.894Z,63.50
2022-09-04T09:50:15.375Z,63.40
2022-09-04T09:52:17.122Z,63.40
2022-09-04T09:54:18.769Z,63.40
2022-09-04T09:56:39.043Z,63.30
2022-09-04T09:58:51.880Z,63.20
2022-09-04T10:01:00.159Z,63.40
2022-09-04T10:03:08.305Z,63.20
2022-09-04T10:05:12.833Z,63.00
2022-09-04T10:07:19.911Z,62.80
2022-09-04T10:09:34.541Z,62.60
2022-09-04T10:11:54.928Z,62.60
2022-09-04T10:14:25.278Z,62.50
2022-09-04T10:16:44.899Z,62.40
2022-09-04T10:19:05.431Z,62.20
2022-09-04T10:21:26.071Z,62.20
2022-09-04T10:23:46.618Z,62.20
2022-09-04T10:25:48.236Z,62.10
2022-09-04T10:27:59.273Z,62.00
2022-09-04T10:30:10.139Z,62.00
2022-09-04T10:32:37.665Z,61.50
2022-09-04T10:34:58.144Z,61.40
2022-09-04T10:37:17.268Z,61.40
2022-09-04T10:39:41.009Z,61.30
2022-09-04T10:41:58.172Z,61.10
2022-09-04T10:44:18.510Z,61.00
2022-09-04T10:46:43.782Z,60.80
2022-09-04T10:49:04.060Z,60.50
2022-09-04T10:51:25.419Z,60.70
2022-09-04T10:53:56.563Z,60.70
2022-09-04T10:58:32.425Z,60.40
2022-09-04T11:00:54.623Z,60.30
2022-09-04T11:03:06.492Z,60.00
2022-09-04T11:05:27.702Z,60.00
2022-09-04T11:07:49.184Z,60.10
2022-09-04T11:09:56.546Z,60.40
2022-09-04T11:12:07.528Z,60.40
2022-09-04T11:14:20.573Z,60.40
2022-09-04T11:16:31.014Z,60.10
2022-09-04T11:18:53.471Z,59.90
2022-09-04T11:21:02.940Z,60.40
2022-09-04T11:23:23.158Z,59.30
2022-09-04T11:25:44.595Z,58.80
2022-09-04T11:27:49.493Z,59.00
2022-09-04T11:30:20.673Z,59.10
2022-09-04T11:32:40.915Z,59.00
2022-09-04T11:34:42.679Z,59.00
2022-09-04T11:36:56.846Z,59.40
2022-09-04T11:39:10.331Z,59.40
2022-09-04T11:41:17.997Z,59.00
2022-09-04T11:43:31.932Z,59.10
2022-09-04T11:45:36.517Z,59.00
2022-09-04T11:48:02.666Z,58.80
2022-09-04T11:50:04.424Z,58.90
2022-09-04T11:52:26.466Z,58.70
2022-09-04T11:54:43.453Z,58.50
2022-09-04T11:57:07.035Z,58.80
2022-09-04T11:59:08.780Z,58.00
2022-09-04T12:01:35.407Z,57.80
2022-09-04T12:03:49.538Z,57.60
2022-09-04T12:06:09.950Z,57.80
2022-09-04T12:08:32.527Z,57.70
2022-09-04T12:10:45.052Z,57.50
2022-09-04T12:13:14.727Z,57.50
2022-09-04T12:15:23.999Z,57.50
2022-09-04T12:17:58.288Z,57.60
2022-09-04T12:20:24.050Z,57.00
2022-09-04T12:22:44.793Z,56.90
2022-09-04T12:25:05.306Z,57.00
2022-09-04T12:27:21.135Z,56.30
2022-09-04T12:29:35.216Z,56.70
2022-09-04T12:31:56.795Z,56.40
2022-09-04T12:34:18.253Z,56.20
2022-09-04T12:36:38.716Z,56.10
2022-09-04T12:38:56.752Z,54.30
2022-09-04T12:41:13.520Z,55.20
2022-09-04T12:43:29.312Z,55.20
2022-09-04T12:45:31.151Z,55.20
2022-09-04T12:47:55.517Z,54.70
2022-09-04T12:50:04.873Z,55.30
2022-09-04T12:52:09.640Z,55.00
2022-09-04T12:54:11.292Z,54.80
2022-09-04T12:56:16.912Z,54.90
2022-09-04T12:58:31.155Z,54.50
2022-09-04T13:00:48.738Z,54.00
2022-09-04T13:03:11.789Z,53.60
2022-09-04T13:05:33.482Z,53.60
2022-09-04T13:07:44.558Z,53.50
2022-09-04T13:09:53.560Z,53.70
2022-09-04T13:11:58.643Z,54.30
2022-09-04T13:14:00.315Z,54.50
2022-09-04T13:16:07.095Z,53.40
2022-09-04T13:18:24.164Z,53.40
2022-09-04T13:20:34.953Z,53.00
2022-09-04T13:22:50.647Z,52.60
2022-09-04T13:25:02.745Z,52.20
2022-09-04T13:27:26.583Z,52.20
2022-09-04T13:29:44.315Z,52.20
2022-09-04T13:31:46.085Z,50.00
2022-09-04T13:34:06.130Z,52.40
2022-09-04T13:36:19.779Z,52.40
2022-09-04T13:38:42.327Z,52.80
2022-09-04T13:41:00.704Z,52.30
2022-09-04T13:43:11.280Z,52.00
2022-09-04T13:45:15.213Z,51.40
2022-09-04T13:47:20.970Z,51.40
2022-09-04T13:49:29.572Z,51.20
2022-09-04T13:51:34.287Z,51.20
2022-09-04T13:53:40.446Z,51.50
2022-09-04T13:55:48.007Z,51.60
2022-09-04T13:57:53.856Z,51.30
2022-09-04T13:59:59.158Z,50.30
2022-09-04T14:02:04.720Z,50.80
2022-09-04T14:04:11.261Z,50.70
2022-09-04T14:06:14.939Z,50.60
2022-09-04T14:08:20.540Z,50.60
2022-09-04T14:10:25.624Z,50.90
2022-09-04T14:12:46.626Z,50.90
2022-09-04T14:15:14.451Z,51.20
2022-09-04T14:17:20.215Z,51.50
2022-09-04T14:19:46.166Z,51.80
2022-09-04T14:22:14.930Z,51.60
2022-09-04T14:24:35.056Z,51.40
2022-09-04T14:26:54.084Z,51.40
2022-09-04T14:28:58.628Z,51.20
2022-09-04T14:31:00.329Z,51.30
2022-09-04T14:33:08.786Z,51.10
2022-09-04T14:35:43.692Z,50.70
2022-09-04T14:37:54.714Z,51.50
2022-09-04T14:39:57.727Z,51.00
2022-09-04T14:42:09.886Z,50.90
2022-09-04T14:44:20.819Z,50.70
2022-09-04T14:46:33.406Z,50.50
2022-09-04T14:48:40.352Z,50.10
2022-09-04T14:50:48.264Z,49.10
2022-09-04T14:53:10.227Z,49.10
2022-09-04T14:55:14.283Z,49.90
2022-09-04T14:57:17.664Z,49.70
2022-09-04T14:59:23.468Z,49.30
2022-09-04T15:01:25.787Z,49.70
2022-09-04T15:03:29.997Z,49.20
2022-09-04T15:05:34.220Z,49.30
2022-09-04T15:07:41.740Z,49.00
2022-09-04T15:09:45.700Z,48.20
2022-09-04T15:11:48.389Z,48.90
2022-09-04T15:13:55.356Z,49.10
2022-09-04T15:15:59.934Z,49.20
2022-09-04T15:18:39.006Z,48.90
2022-09-04T15:20:47.338Z,48.60
2022-09-04T15:22:51.665Z,48.60
2022-09-04T15:25:04.283Z,48.70
2022-09-04T15:27:12.713Z,48.30
2022-09-04T15:29:19.054Z,48.40
2022-09-04T15:31:20.824Z,48.40
2022-09-04T15:33:22.682Z,47.90
2022-09-04T15:35:32.727Z,48.10
2022-09-04T15:37:35.336Z,48.10
2022-09-04T15:39:39.968Z,47.50
2022-09-04T15:41:47.027Z,47.70
2022-09-04T15:43:54.813Z,47.90
2022-09-04T15:45:59.755Z,47.70
2022-09-04T15:48:24.583Z,47.60
2022-09-04T15:50:27.774Z,47.80
2022-09-04T15:52:37.056Z,47.20
2022-09-04T15:54:41.565Z,47.50
2022-09-04T15:56:47.405Z,47.50
2022-09-04T15:58:51.038Z,47.70
2022-09-04T16:01:08.603Z,47.70
2022-09-04T16:03:16.695Z,47.50
2022-09-04T16:05:24.015Z,46.80
2022-09-04T16:07:36.608Z,46.50
2022-09-04T16:09:39.916Z,46.50
2022-09-04T16:11:45.219Z,46.70
2022-09-04T16:13:49.857Z,46.10
2022-09-04T16:16:11.890Z,46.40
2022-09-04T16:18:15.815Z,46.30
2022-09-04T16:20:36.425Z,46.10
2022-09-04T16:22:38.100Z,46.10
2022-09-04T16:24:45.977Z,45.70
2022-09-04T16:26:50.563Z,45.70
2022-09-04T16:28:58.629Z,45.50
2022-09-04T16:31:04.718Z,45.40
2022-09-04T16:33:26.966Z,45.40
2022-09-04T16:35:33.100Z,45.30
2022-09-04T16:37:34.778Z,45.60
2022-09-04T16:39:42.656Z,45.60
2022-09-04T16:41:50.514Z,45.80
2022-09-04T16:44:11.122Z,45.90
2022-09-04T16:46:27.301Z,46.00
2022-09-04T16:48:35.971Z,46.10
2022-09-04T16:50:48.617Z,46.30
2022-09-04T16:53:13.096Z,46.60
2022-09-04T16:55:24.619Z,46.70
2022-09-04T16:57:29.310Z,46.70
2022-09-04T16:59:58.629Z,46.70
2022-09-04T17:02:08.849Z,47.00
2022-09-04T17:04:14.504Z,47.10
2022-09-04T17:06:21.599Z,47.40
2022-09-04T17:08:41.952Z,47.20
2022-09-04T17:10:46.369Z,47.20
2022-09-04T17:12:57.106Z,47.30
2022-09-04T17:15:09.319Z,47.50
2022-09-04T17:17:30.138Z,47.60
2022-09-04T17:19:33.742Z,47.80
2022-09-04T17:28:59.806Z,48.10
2022-09-04T17:29:02.055Z,48.10
2022-09-04T17:29:15.594Z,48.30
2022-09-04T17:29:33.757Z,48.40
2022-09-04T17:31:45.312Z,48.50
2022-09-04T17:40:31.818Z,48.70
2022-09-04T17:40:48.342Z,48.70
2022-09-04T17:40:57.402Z,49.00
2022-09-04T17:41:38.134Z,49.30
2022-09-04T17:44:09.159Z,49.30
2022-09-04T17:46:12.596Z,49.30
2022-09-04T17:48:19.910Z,49.40
2022-09-04T17:50:25.262Z,49.40
2022-09-04T17:52:28.624Z,49.60
2022-09-04T17:54:32.605Z,49.80
2022-09-04T17:56:34.352Z,49.80
2022-09-04T17:58:48.065Z,50.00
2022-09-04T18:01:14.908Z,49.90
2022-09-04T18:03:23.240Z,50.00
2022-09-04T18:05:49.176Z,50.10
2022-09-04T18:08:13.180Z,50.30
2022-09-04T18:10:23.276Z,50.40
2022-09-04T18:12:31.332Z,50.40
2022-09-04T18:15:22.426Z,50.60
2022-09-04T18:17:39.686Z,50.50
2022-09-04T18:19:48.777Z,50.60
2022-09-04T18:22:07.784Z,50.70
2022-09-04T18:24:26.571Z,50.70
2022-09-04T18:26:41.459Z,50.90
2022-09-04T18:30:57.184Z,51.00
2022-09-04T18:37:13.236Z,51.00
2022-09-04T18:37:21.673Z,51.20
2022-09-04T18:37:26.041Z,51.20
2022-09-04T18:39:18.979Z,51.20
2022-09-04T18:44:58.462Z,51.20
2022-09-04T18:50:21.408Z,51.30
2022-09-04T18:50:36.968Z,51.40
2022-09-04T18:50:50.179Z,51.50
2022-09-04T18:51:19.669Z,51.50
2022-09-04T18:53:26.608Z,51.50
2022-09-04T18:55:33.663Z,51.50
2022-09-04T18:57:49.076Z,51.70
2022-09-04T18:59:59.780Z,51.60
2022-09-04T19:02:17.921Z,51.60
2022-09-04T19:04:28.555Z,51.90
2022-09-04T19:07:07.330Z,51.90
2022-09-04T19:09:14.732Z,52.00
2022-09-04T19:11:21.649Z,51.90
2022-09-04T19:13:28.818Z,52.00
2022-09-04T19:15:36.789Z,52.10
2022-09-04T19:17:40.561Z,52.30
2022-09-04T19:19:46.585Z,52.20
2022-09-04T19:21:57.671Z,52.40
2022-09-04T19:24:05.247Z,52.40
2022-09-04T19:26:27.511Z,52.40
2022-09-04T19:28:40.203Z,52.50
2022-09-04T19:30:50.607Z,52.70
2022-09-04T19:32:59.823Z,52.60
2022-09-04T19:35:04.785Z,52.70
2022-09-04T19:40:13.771Z,52.80
2022-09-04T19:45:54.732Z,52.80
2022-09-04T19:46:13.205Z,53.10
2022-09-04T19:46:14.472Z,53.00
2022-09-04T19:47:38.078Z,53.10
2022-09-04T19:53:17.854Z,53.10
2022-09-04T19:53:30.935Z,53.30
2022-09-04T19:54:31.823Z,53.50
2022-09-04T19:56:45.719Z,53.20
2022-09-04T19:59:17.656Z,53.30
2022-09-04T20:01:22.765Z,53.50
2022-09-04T20:03:31.237Z,53.50
2022-09-04T20:05:34.291Z,53.50
2022-09-04T20:07:55.408Z,53.70
2022-09-04T20:09:59.032Z,53.70
2022-09-04T20:12:24.151Z,53.70
2022-09-04T20:14:25.942Z,53.80
2022-09-04T20:16:40.097Z,53.70
2022-09-04T20:18:55.793Z,53.90
2022-09-04T20:21:05.368Z,53.80
2022-09-04T20:23:39.779Z,54.00
2022-09-04T20:25:55.783Z,54.00
2022-09-04T20:28:10.480Z,54.10
2022-09-04T20:30:16.663Z,53.90
2022-09-04T20:32:22.361Z,53.90
2022-09-04T20:34:50.552Z,54.20
2022-09-04T20:36:57.408Z,54.20
2022-09-04T20:39:16.175Z,54.00
2022-09-04T20:41:23.770Z,53.90
2022-09-04T20:43:31.561Z,54.30
2022-09-04T20:49:35.332Z,54.20
2022-09-04T20:52:52.791Z,54.20
2022-09-04T20:52:57.625Z,54.50
2022-09-04T20:53:25.460Z,54.30
2022-09-04T20:55:39.088Z,54.20
2022-09-04T21:03:10.993Z,54.60
2022-09-04T21:03:11.377Z,54.60
2022-09-04T21:03:18.528Z,54.60
2022-09-04T21:05:41.487Z,54.60
2022-09-04T21:07:47.634Z,54.60
2022-09-04T21:09:54.896Z,54.50
2022-09-04T21:12:15.918Z,54.50
2022-09-04T21:14:45.218Z,54.60
2022-09-04T21:17:18.761Z,54.60
2022-09-04T21:19:57.569Z,54.60
2022-09-04T21:22:05.392Z,54.80
2022-09-04T21:24:30.450Z,54.80
2022-09-04T21:26:49.709Z,54.80
2022-09-04T21:28:58.284Z,54.80
2022-09-04T21:31:31.805Z,54.80
2022-09-04T21:33:46.944Z,54.80
2022-09-04T21:35:48.618Z,54.90
2022-09-04T21:37:50.237Z,55.20
2022-09-04T21:39:58.276Z,55.00
2022-09-04T21:42:00.356Z,54.80
2022-09-04T21:44:26.534Z,54.80
2022-09-04T21:46:47.183Z,54.70
2022-09-04T21:48:57.847Z,54.80
2022-09-04T21:51:28.731Z,55.00
2022-09-04T21:53:37.198Z,55.10
2022-09-04T21:58:58.573Z,55.00
2022-09-04T22:02:38.833Z,55.00
2022-09-04T22:02:39.689Z,54.90
2022-09-04T22:03:34.889Z,55.10
2022-09-04T22:05:56.340Z,55.20
2022-09-04T22:12:50.217Z,55.20
2022-09-04T22:13:34.247Z,55.20
2022-09-04T22:13:40.086Z,55.30
2022-09-04T22:15:45.315Z,55.20
2022-09-04T22:17:56.125Z,55.40
2022-09-04T22:20:01.190Z,55.30
2022-09-04T22:22:03.643Z,55.40
2022-09-04T22:24:11.393Z,55.60
2022-09-04T22:26:31.918Z,55.50
2022-09-04T22:28:33.576Z,55.60
2022-09-04T22:30:44.380Z,55.40
2022-09-04T22:32:49.115Z,55.50
2022-09-04T22:35:00.034Z,55.70
2022-09-04T22:37:04.554Z,55.70
2022-09-04T22:39:12.169Z,55.70
2022-09-04T22:41:13.786Z,55.60
2022-09-04T22:43:17.690Z,55.60
2022-09-04T22:45:33.365Z,55.70
2022-09-04T22:47:44.359Z,55.70
2022-09-04T22:50:04.839Z,55.80
2022-09-04T22:52:09.900Z,55.60
2022-09-04T22:54:21.097Z,55.70
2022-09-04T22:56:35.958Z,55.80
2022-09-04T22:58:47.205Z,55.50
2022-09-04T23:00:48.915Z,55.70
2022-09-04T23:03:08.477Z,55.70
2022-09-04T23:05:13.857Z,55.60
2022-09-04T23:12:13.501Z,55.70
2022-09-04T23:13:43.649Z,55.90
2022-09-04T23:13:48.168Z,55.90
2022-09-04T23:15:19.298Z,56.00
2022-09-04T23:17:58.315Z,56.20
2022-09-04T23:26:39.193Z,56.20
2022-09-04T23:26:46.044Z,56.30
2022-09-04T23:26:49.612Z,56.00
2022-09-04T23:28:26.981Z,56.30
2022-09-04T23:30:27.834Z,56.40
2022-09-04T23:32:48.069Z,56.40
2022-09-04T23:35:14.787Z,56.20
2022-09-04T23:37:20.320Z,56.30
2022-09-04T23:39:40.882Z,56.30
2022-09-04T23:41:52.895Z,56.50
2022-09-04T23:44:13.942Z,56.60
2022-09-04T23:46:23.896Z,56.70
2022-09-04T23:48:37.869Z,56.40
2022-09-04T23:50:47.441Z,56.60
2022-09-04T23:52:52.351Z,56.50
2022-09-04T23:55:03.295Z,56.70
2022-09-04T23:57:26.311Z,56.60
2022-09-04T23:59:38.281Z,56.70
